sensor_id;sensor_type;location;lat;lon;timestamp;pressure;altitude;pressure_sealevel;temperature;humidity
48882;BME280;57063;51.406;-2.402;2023-04-07T10:18:12;101111.53;;;27.73;24.35
48882;BME280;57063;51.406;-2.402;2023-04-07T14:22:15;100999.31;;;16.53;33.20
48882;BME280;57063;51.406;-2.402;2023-04-07T14:24:41;101005.59;;;16.26;35.64
48882;BME280;57063;51.406;-2.402;2023-04-07T14:27:33;100991.66;;;16.27;37.50
48882;BME280;57063;51.406;-2.402;2023-04-07T14:30:03;100997.44;;;16.31;37.46
48882;BME280;57063;51.406;-2.402;2023-04-07T14:32:29;100991.41;;;16.06;35.25
48882;BME280;57063;51.406;-2.402;2023-04-07T14:35:01;100997.72;;;15.91;37.72
48882;BME280;57063;51.406;-2.402;2023-04-07T14:37:30;100992.06;;;15.97;37.77
48882;BME280;57063;51.406;-2.402;2023-04-07T14:40:08;100985.19;;;15.96;35.47
48882;BME280;57063;51.406;-2.402;2023-04-07T14:42:42;101005.66;;;15.51;35.96
48882;BME280;57063;51.406;-2.402;2023-04-07T14:45:14;100991.44;;;15.44;36.27
48882;BME280;57063;51.406;-2.402;2023-04-07T14:48:02;101002.03;;;15.40;37.39
48882;BME280;57063;51.406;-2.402;2023-04-07T14:50:33;100989.88;;;15.15;38.46
48882;BME280;57063;51.406;-2.402;2023-04-07T14:53:02;100985.59;;;14.76;39.06
48882;BME280;57063;51.406;-2.402;2023-04-07T14:55:31;100988.13;;;14.90;38.22
48882;BME280;57063;51.406;-2.402;2023-04-07T15:01:30;100993.81;;;15.21;41.11
48882;BME280;57063;51.406;-2.402;2023-04-07T15:04:07;100994.66;;;15.34;42.26
48882;BME280;57063;51.406;-2.402;2023-04-07T15:06:47;100984.13;;;15.36;42.22
48882;BME280;57063;51.406;-2.402;2023-04-07T15:09:28;100974.78;;;15.33;42.23
48882;BME280;57063;51.406;-2.402;2023-04-07T15:11:54;100996.66;;;15.18;40.45
48882;BME280;57063;51.406;-2.402;2023-04-07T15:17:36;100981.13;;;14.91;39.33
48882;BME280;57063;51.406;-2.402;2023-04-07T15:20:12;100983.66;;;14.92;40.09
48882;BME280;57063;51.406;-2.402;2023-04-07T15:22:45;100972.81;;;14.73;39.33
48882;BME280;57063;51.406;-2.402;2023-04-07T15:28:12;100975.03;;;15.05;39.80
48882;BME280;57063;51.406;-2.402;2023-04-07T15:36:43;100989.78;;;15.17;43.04
48882;BME280;57063;51.406;-2.402;2023-04-07T15:39:13;100974.69;;;15.09;39.71
48882;BME280;57063;51.406;-2.402;2023-04-07T15:41:41;100989.44;;;14.83;38.91
48882;BME280;57063;51.406;-2.402;2023-04-07T15:47:13;100973.03;;;14.83;39.12
48882;BME280;57063;51.406;-2.402;2023-04-07T15:50:20;100967.63;;;14.98;41.72
48882;BME280;57063;51.406;-2.402;2023-04-07T15:53:07;100975.03;;;15.05;42.59
48882;BME280;57063;51.406;-2.402;2023-04-07T15:55:56;100990.06;;;14.99;40.00
48882;BME280;57063;51.406;-2.402;2023-04-07T15:58:29;100973.25;;;14.92;39.74
48882;BME280;57063;51.406;-2.402;2023-04-07T16:00:55;100971.66;;;14.77;39.23
48882;BME280;57063;51.406;-2.402;2023-04-07T16:07:04;100974.25;;;14.77;42.42
48882;BME280;57063;51.406;-2.402;2023-04-07T16:09:42;100967.50;;;14.87;39.68
48882;BME280;57063;51.406;-2.402;2023-04-07T16:12:26;100970.81;;;14.76;38.89
48882;BME280;57063;51.406;-2.402;2023-04-07T16:15:11;100969.03;;;14.64;40.00
48882;BME280;57063;51.406;-2.402;2023-04-07T16:17:48;100982.38;;;14.85;38.86
48882;BME280;57063;51.406;-2.402;2023-04-07T16:20:39;100980.72;;;14.84;39.44
48882;BME280;57063;51.406;-2.402;2023-04-07T16:23:50;100971.19;;;14.58;38.66
48882;BME280;57063;51.406;-2.402;2023-04-07T16:26:37;100990.97;;;14.46;40.31
48882;BME280;57063;51.406;-2.402;2023-04-07T16:35:36;100973.22;;;14.12;40.19
48882;BME280;57063;51.406;-2.402;2023-04-07T16:38:10;100977.88;;;14.07;39.31
48882;BME280;57063;51.406;-2.402;2023-04-07T16:41:13;100980.56;;;13.50;41.40
48882;BME280;57063;51.406;-2.402;2023-04-07T16:44:14;100993.81;;;13.60;41.93
48882;BME280;57063;51.406;-2.402;2023-04-07T16:46:40;100991.69;;;13.66;41.67
48882;BME280;57063;51.406;-2.402;2023-04-07T16:49:38;100999.94;;;13.73;41.15
48882;BME280;57063;51.406;-2.402;2023-04-07T16:55:14;100990.88;;;13.52;41.47
48882;BME280;57063;51.406;-2.402;2023-04-07T16:57:53;100989.44;;;13.46;39.86
48882;BME280;57063;51.406;-2.402;2023-04-07T17:00:22;101000.50;;;13.49;40.55
48882;BME280;57063;51.406;-2.402;2023-04-07T17:02:50;100991.13;;;13.33;41.27
48882;BME280;57063;51.406;-2.402;2023-04-07T17:05:16;100994.75;;;13.30;41.99
48882;BME280;57063;51.406;-2.402;2023-04-07T17:08:02;100988.97;;;13.25;40.15
48882;BME280;57063;51.406;-2.402;2023-04-07T17:10:46;100991.28;;;13.15;41.35
48882;BME280;57063;51.406;-2.402;2023-04-07T17:14:02;101003.88;;;13.07;39.57
48882;BME280;57063;51.406;-2.402;2023-04-07T17:16:56;101013.56;;;13.03;42.00
48882;BME280;57063;51.406;-2.402;2023-04-07T17:19:42;101013.94;;;12.97;42.83
48882;BME280;57063;51.406;-2.402;2023-04-07T17:22:26;101006.47;;;12.77;43.03
48882;BME280;57063;51.406;-2.402;2023-04-07T17:24:54;101007.94;;;12.67;44.88
48882;BME280;57063;51.406;-2.402;2023-04-07T17:27:43;101016.63;;;12.66;45.28
48882;BME280;57063;51.406;-2.402;2023-04-07T17:30:23;101014.56;;;12.56;44.03
48882;BME280;57063;51.406;-2.402;2023-04-07T17:39:44;101004.56;;;12.18;42.80
48882;BME280;57063;51.406;-2.402;2023-04-07T17:45:36;101022.78;;;12.17;45.44
48882;BME280;57063;51.406;-2.402;2023-04-07T17:48:32;101027.09;;;12.16;46.78
48882;BME280;57063;51.406;-2.402;2023-04-07T17:51:03;101014.94;;;12.03;45.00
48882;BME280;57063;51.406;-2.402;2023-04-07T17:56:54;101008.13;;;11.84;45.39
48882;BME280;57063;51.406;-2.402;2023-04-07T18:02:43;101031.88;;;11.75;46.07
48882;BME280;57063;51.406;-2.402;2023-04-07T18:05:41;101023.06;;;11.46;48.85
48882;BME280;57063;51.406;-2.402;2023-04-07T18:08:12;101026.59;;;11.27;50.13
48882;BME280;57063;51.406;-2.402;2023-04-07T18:10:39;101046.75;;;11.21;51.13
48882;BME280;57063;51.406;-2.402;2023-04-07T18:13:08;101033.06;;;11.01;52.11
48882;BME280;57063;51.406;-2.402;2023-04-07T18:15:58;101033.13;;;10.82;51.83
48882;BME280;57063;51.406;-2.402;2023-04-07T18:18:44;101035.81;;;10.63;52.46
48882;BME280;57063;51.406;-2.402;2023-04-07T18:21:40;101056.06;;;10.54;54.39
48882;BME280;57063;51.406;-2.402;2023-04-07T18:27:02;101046.97;;;10.07;55.93
48882;BME280;57063;51.406;-2.402;2023-04-07T18:29:33;101051.16;;;9.91;57.44
48882;BME280;57063;51.406;-2.402;2023-04-07T18:32:04;101061.63;;;9.88;57.59
48882;BME280;57063;51.406;-2.402;2023-04-07T18:34:46;101064.03;;;9.72;58.13
48882;BME280;57063;51.406;-2.402;2023-04-07T18:37:20;101057.09;;;9.53;58.15
48882;BME280;57063;51.406;-2.402;2023-04-07T18:39:54;101064.66;;;9.37;59.36
48882;BME280;57063;51.406;-2.402;2023-04-07T18:43:00;101061.03;;;9.21;60.80
48882;BME280;57063;51.406;-2.402;2023-04-07T18:45:57;101063.47;;;9.04;60.49
48882;BME280;57063;51.406;-2.402;2023-04-07T18:48:31;101073.00;;;9.02;59.95
48882;BME280;57063;51.406;-2.402;2023-04-07T18:51:05;101070.13;;;8.87;60.44
48882;BME280;57063;51.406;-2.402;2023-04-07T18:53:40;101073.34;;;8.72;61.18
48882;BME280;57063;51.406;-2.402;2023-04-07T18:56:13;101079.63;;;8.65;62.07
48882;BME280;57063;51.406;-2.402;2023-04-07T18:58:47;101088.41;;;8.59;62.38
48882;BME280;57063;51.406;-2.402;2023-04-07T19:01:18;101092.25;;;8.71;59.24
48882;BME280;57063;51.406;-2.402;2023-04-07T19:03:44;101087.47;;;8.62;57.89
48882;BME280;57063;51.406;-2.402;2023-04-07T19:06:14;101084.53;;;8.49;58.65
48882;BME280;57063;51.406;-2.402;2023-04-07T19:08:42;101076.28;;;8.39;58.79
48882;BME280;57063;51.406;-2.402;2023-04-07T19:11:08;101080.88;;;8.31;59.66
48882;BME280;57063;51.406;-2.402;2023-04-07T19:13:40;101084.53;;;8.25;59.01
48882;BME280;57063;51.406;-2.402;2023-04-07T19:16:13;101097.13;;;8.31;58.30
48882;BME280;57063;51.406;-2.402;2023-04-07T19:18:45;101088.38;;;8.37;56.83
48882;BME280;57063;51.406;-2.402;2023-04-07T19:21:18;101106.38;;;8.37;57.40
48882;BME280;57063;51.406;-2.402;2023-04-07T19:23:55;101105.81;;;8.29;57.08
48882;BME280;57063;51.406;-2.402;2023-04-07T19:26:26;101105.72;;;8.32;56.83
48882;BME280;57063;51.406;-2.402;2023-04-07T19:29:12;101103.75;;;8.15;57.46
48882;BME280;57063;51.406;-2.402;2023-04-07T19:31:56;101116.47;;;8.20;57.33
48882;BME280;57063;51.406;-2.402;2023-04-07T19:34:24;101124.72;;;8.28;57.10
48882;BME280;57063;51.406;-2.402;2023-04-07T19:36:52;101120.66;;;8.22;57.37
48882;BME280;57063;51.406;-2.402;2023-04-07T19:39:22;101117.63;;;8.34;55.59
48882;BME280;57063;51.406;-2.402;2023-04-07T19:41:51;101115.50;;;8.22;56.41
48882;BME280;57063;51.406;-2.402;2023-04-07T19:44:28;101124.94;;;8.22;56.90
48882;BME280;57063;51.406;-2.402;2023-04-07T19:46:58;101115.66;;;8.18;56.12
48882;BME280;57063;51.406;-2.402;2023-04-07T19:49:30;101129.19;;;8.23;56.35
48882;BME280;57063;51.406;-2.402;2023-04-07T19:51:59;101125.03;;;8.19;56.98
48882;BME280;57063;51.406;-2.402;2023-04-07T19:54:31;101123.72;;;8.08;56.65
48882;BME280;57063;51.406;-2.402;2023-04-07T19:57:12;101132.72;;;8.20;55.92
48882;BME280;57063;51.406;-2.402;2023-04-07T19:59:43;101141.09;;;8.25;55.41
48882;BME280;57063;51.406;-2.402;2023-04-07T20:02:21;101123.66;;;8.10;54.79
48882;BME280;57063;51.406;-2.402;2023-04-07T20:04:56;101140.03;;;8.07;55.95
48882;BME280;57063;51.406;-2.402;2023-04-07T20:07:24;101124.16;;;7.96;57.32
48882;BME280;57063;51.406;-2.402;2023-04-07T20:09:58;101134.56;;;7.93;56.10
48882;BME280;57063;51.406;-2.402;2023-04-07T20:12:33;101131.38;;;7.85;56.02
48882;BME280;57063;51.406;-2.402;2023-04-07T20:14:59;101141.91;;;7.79;58.89
48882;BME280;57063;51.406;-2.402;2023-04-07T20:17:31;101141.31;;;7.70;57.42
48882;BME280;57063;51.406;-2.402;2023-04-07T20:20:08;101137.09;;;7.68;57.22
48882;BME280;57063;51.406;-2.402;2023-04-07T20:22:36;101149.81;;;7.72;56.87
48882;BME280;57063;51.406;-2.402;2023-04-07T20:25:12;101144.66;;;7.72;56.17
48882;BME280;57063;51.406;-2.402;2023-04-07T20:27:43;101142.22;;;7.69;56.95
48882;BME280;57063;51.406;-2.402;2023-04-07T20:30:16;101149.53;;;7.80;56.07
48882;BME280;57063;51.406;-2.402;2023-04-07T20:32:50;101135.28;;;7.71;55.59
48882;BME280;57063;51.406;-2.402;2023-04-07T20:35:21;101152.09;;;7.80;55.90
48882;BME280;57063;51.406;-2.402;2023-04-07T20:38:13;101150.47;;;7.78;56.07
48882;BME280;57063;51.406;-2.402;2023-04-07T20:43:24;101148.63;;;7.83;55.81
48882;BME280;57063;51.406;-2.402;2023-04-07T20:45:57;101146.09;;;7.81;56.05
48882;BME280;57063;51.406;-2.402;2023-04-07T20:48:26;101164.88;;;7.83;57.65
48882;BME280;57063;51.406;-2.402;2023-04-07T20:53:44;101158.03;;;7.82;56.50
48882;BME280;57063;51.406;-2.402;2023-04-07T20:56:12;101147.16;;;7.76;56.21
48882;BME280;57063;51.406;-2.402;2023-04-07T20:58:58;101155.72;;;7.75;55.01
48882;BME280;57063;51.406;-2.402;2023-04-07T21:01:24;101148.41;;;7.64;54.80
48882;BME280;57063;51.406;-2.402;2023-04-07T21:04:27;101167.91;;;7.69;55.24
48882;BME280;57063;51.406;-2.402;2023-04-07T21:06:55;101152.41;;;7.46;58.13
48882;BME280;57063;51.406;-2.402;2023-04-07T21:09:26;101167.88;;;7.44;59.12
48882;BME280;57063;51.406;-2.402;2023-04-07T21:11:57;101160.47;;;7.08;63.76
48882;BME280;57063;51.406;-2.402;2023-04-07T21:14:26;101190.69;;;6.99;64.53
48882;BME280;57063;51.406;-2.402;2023-04-07T21:17:03;101176.50;;;6.87;63.59
48882;BME280;57063;51.406;-2.402;2023-04-07T21:19:38;101172.69;;;6.72;65.03
48882;BME280;57063;51.406;-2.402;2023-04-07T21:22:05;101175.78;;;6.83;67.08
48882;BME280;57063;51.406;-2.402;2023-04-07T21:24:33;101165.22;;;6.64;67.76
48882;BME280;57063;51.406;-2.402;2023-04-07T21:26:59;101182.00;;;6.47;68.81
48882;BME280;57063;51.406;-2.402;2023-04-07T21:29:35;101178.06;;;6.33;70.34
48882;BME280;57063;51.406;-2.402;2023-04-07T21:32:03;101181.16;;;6.15;72.35
48882;BME280;57063;51.406;-2.402;2023-04-07T21:34:29;101178.13;;;6.00;72.27
48882;BME280;57063;51.406;-2.402;2023-04-07T21:36:55;101181.13;;;5.82;72.59
48882;BME280;57063;51.406;-2.402;2023-04-07T21:39:23;101171.41;;;5.61;73.22
48882;BME280;57063;51.406;-2.402;2023-04-07T21:41:51;101190.31;;;5.56;74.21
48882;BME280;57063;51.406;-2.402;2023-04-07T21:44:24;101184.59;;;5.45;74.99
48882;BME280;57063;51.406;-2.402;2023-04-07T21:46:50;101176.41;;;5.31;75.46
48882;BME280;57063;51.406;-2.402;2023-04-07T21:49:24;101187.34;;;5.38;75.58
48882;BME280;57063;51.406;-2.402;2023-04-07T21:51:50;101191.84;;;5.28;75.69
48882;BME280;57063;51.406;-2.402;2023-04-07T21:54:29;101195.41;;;5.21;74.75
48882;BME280;57063;51.406;-2.402;2023-04-07T21:56:57;101184.66;;;5.06;75.11
48882;BME280;57063;51.406;-2.402;2023-04-07T21:59:23;101191.69;;;4.97;75.78
48882;BME280;57063;51.406;-2.402;2023-04-07T22:01:51;101191.06;;;4.87;76.81
48882;BME280;57063;51.406;-2.402;2023-04-07T22:04:19;101171.84;;;4.69;77.59
48882;BME280;57063;51.406;-2.402;2023-04-07T22:06:46;101177.06;;;4.64;78.49
48882;BME280;57063;51.406;-2.402;2023-04-07T22:09:16;101179.72;;;4.58;79.36
48882;BME280;57063;51.406;-2.402;2023-04-07T22:11:42;101170.53;;;4.49;80.32
48882;BME280;57063;51.406;-2.402;2023-04-07T22:14:10;101196.84;;;4.56;81.09
48882;BME280;57063;51.406;-2.402;2023-04-07T22:16:40;101197.66;;;4.57;81.91
48882;BME280;57063;51.406;-2.402;2023-04-07T22:19:08;101180.72;;;4.51;81.91
48882;BME280;57063;51.406;-2.402;2023-04-07T22:21:34;101176.50;;;4.50;81.42
48882;BME280;57063;51.406;-2.402;2023-04-07T22:24:00;101176.50;;;4.50;81.25
48882;BME280;57063;51.406;-2.402;2023-04-07T22:26:26;101186.66;;;4.53;81.47
48882;BME280;57063;51.406;-2.402;2023-04-07T22:28:51;101183.41;;;4.45;81.96
48882;BME280;57063;51.406;-2.402;2023-04-07T22:31:19;101190.25;;;4.43;82.47
48882;BME280;57063;51.406;-2.402;2023-04-07T22:33:48;101197.94;;;4.41;83.33
48882;BME280;57063;51.406;-2.402;2023-04-07T22:36:16;101176.16;;;4.23;84.26
48882;BME280;57063;51.406;-2.402;2023-04-07T22:38:49;101178.84;;;4.17;84.82
48882;BME280;57063;51.406;-2.402;2023-04-07T22:41:15;101175.56;;;4.09;85.70
48882;BME280;57063;51.406;-2.402;2023-04-07T22:43:40;101183.38;;;4.01;86.50
48882;BME280;57063;51.406;-2.402;2023-04-07T22:46:06;101200.38;;;4.04;87.39
48882;BME280;57063;51.406;-2.402;2023-04-07T22:48:35;101201.34;;;3.97;88.00
48882;BME280;57063;51.406;-2.402;2023-04-07T22:51:03;101185.41;;;3.82;88.58
48882;BME280;57063;51.406;-2.402;2023-04-07T22:53:32;101179.63;;;3.73;89.04
48882;BME280;57063;51.406;-2.402;2023-04-07T22:56:00;101185.63;;;3.70;89.48
48882;BME280;57063;51.406;-2.402;2023-04-07T22:58:34;101179.78;;;3.65;90.16
48882;BME280;57063;51.406;-2.402;2023-04-07T23:01:00;101205.22;;;3.71;90.74
48882;BME280;57063;51.406;-2.402;2023-04-07T23:03:28;101197.69;;;3.62;91.31
48882;BME280;57063;51.406;-2.402;2023-04-07T23:06:00;101191.06;;;3.52;91.85
48882;BME280;57063;51.406;-2.402;2023-04-07T23:08:29;101194.44;;;3.52;92.02
48882;BME280;57063;51.406;-2.402;2023-04-07T23:10:57;101194.53;;;3.48;92.72
48882;BME280;57063;51.406;-2.402;2023-04-07T23:13:28;101197.91;;;3.48;93.32
48882;BME280;57063;51.406;-2.402;2023-04-07T23:15:59;101209.81;;;3.49;94.26
48882;BME280;57063;51.406;-2.402;2023-04-07T23:18:38;101193.81;;;3.39;94.68
48882;BME280;57063;51.406;-2.402;2023-04-07T23:21:06;101187.91;;;3.36;95.30
48882;BME280;57063;51.406;-2.402;2023-04-07T23:23:37;101185.34;;;3.37;95.13
48882;BME280;57063;51.406;-2.402;2023-04-07T23:26:06;101190.44;;;3.36;95.28
48882;BME280;57063;51.406;-2.402;2023-04-07T23:28:34;101192.16;;;3.35;95.32
48882;BME280;57063;51.406;-2.402;2023-04-07T23:31:03;101193.88;;;3.33;95.75
48882;BME280;57063;51.406;-2.402;2023-04-07T23:33:33;101198.22;;;3.30;96.39
48882;BME280;57063;51.406;-2.402;2023-04-07T23:36:01;101189.75;;;3.26;96.62
48882;BME280;57063;51.406;-2.402;2023-04-07T23:38:35;101222.84;;;3.31;97.25
48882;BME280;57063;51.406;-2.402;2023-04-07T23:41:05;101217.03;;;3.21;98.00
48882;BME280;57063;51.406;-2.402;2023-04-07T23:43:38;101203.63;;;3.10;98.44
48882;BME280;57063;51.406;-2.402;2023-04-07T23:46:06;101207.00;;;3.09;99.09
48882;BME280;57063;51.406;-2.402;2023-04-07T23:48:37;101227.34;;;3.15;99.65
48882;BME280;57063;51.406;-2.402;2023-04-07T23:51:03;101224.88;;;3.09;100.00
48882;BME280;57063;51.406;-2.402;2023-04-07T23:53:29;101208.00;;;2.98;100.00
48882;BME280;57063;51.406;-2.402;2023-04-07T23:56:03;101204.63;;;2.96;100.00
48882;BME280;57063;51.406;-2.402;2023-04-07T23:58:31;101222.41;;;3.01;100.00
